Time;durP1;ratioP1;P1;durP2;ratioP2;P2;SDS_P1;SDS_P2;PMS_P1;PMS_P2;Temp;Humidity;BMP_temperature;BMP_pressure;BME280_temperature;BME280_humidity;BME280_pressure;Samples;Min_cycle;Max_cycle;Signal;HPM_P1;HPM_P2
2023/12/18 00:01:46;;;;;;;12.00;6.93;;;;;;;-142.57;100.00;55640.41;4939159;28;20042;-82
2023/12/18 00:04:19;;;;;;;17.90;7.45;;;;;;;-142.57;100.00;55678.81;4941485;28;20038;-80
2023/12/18 00:06:45;;;;;;;14.38;7.22;;;;;;;-142.57;100.00;55660.63;4948576;28;20891;-86
2023/12/18 00:09:13;;;;;;;14.52;7.55;;;;;;;-142.57;100.00;55668.69;4928484;28;20635;-85
2023/12/18 00:11:40;;;;;;;15.50;7.30;;;;;;;-142.57;100.00;55648.50;4938600;28;20035;-80
2023/12/18 00:14:05;;;;;;;18.45;8.35;;;;;;;-142.57;100.00;55638.41;4917930;28;20048;-82
2023/12/18 00:16:30;;;;;;;17.75;8.27;;;;;;;-142.57;100.00;55648.50;4931810;28;20118;-81
2023/12/18 00:18:56;;;;;;;18.23;8.55;;;;;;;-142.57;100.00;55640.41;4915816;28;20328;-79
2023/12/18 00:21:22;;;;;;;15.10;7.80;;;;;;;-142.57;100.00;55684.88;4916971;28;20055;-81
2023/12/18 00:23:47;;;;;;;15.48;7.88;;;;;;;-142.57;100.00;55705.06;4932729;28;20034;-80
2023/12/18 00:26:13;;;;;;;16.60;7.97;;;;;;;-142.57;100.00;55648.50;4931510;28;20049;-80
2023/12/18 00:28:38;;;;;;;18.65;8.40;;;;;;;-142.57;100.00;55713.16;4934998;28;21456;-79
2023/12/18 00:31:04;;;;;;;17.88;8.10;;;;;;;-142.57;100.00;55701.03;4933396;28;20039;-83
2023/12/18 00:33:30;;;;;;;16.55;8.50;;;;;;;-142.57;100.00;55707.09;4919746;28;20043;-82
2023/12/18 00:35:55;;;;;;;14.88;8.02;;;;;;;-142.57;100.00;55646.47;4938847;28;20419;-82
2023/12/18 00:38:21;;;;;;;18.55;7.95;;;;;;;-142.57;100.00;55660.63;4922792;28;20406;-83
2023/12/18 00:40:46;;;;;;;19.88;8.68;;;;;;;-142.57;100.00;55688.91;4919732;28;20477;-82
2023/12/18 00:43:12;;;;;;;19.52;9.02;;;;;;;-142.57;100.00;55727.28;4935066;28;20501;-81
2023/12/18 00:45:38;;;;;;;12.90;7.68;;;;;;;-142.57;100.00;55741.44;4936200;28;20496;-84
2023/12/18 00:48:04;;;;;;;18.88;8.90;;;;;;;-142.57;100.00;55692.94;4942348;28;20030;-79
2023/12/18 00:50:30;;;;;;;21.70;8.55;;;;;;;-142.57;100.00;55684.88;4937366;28;20030;-88
2023/12/18 00:52:55;;;;;;;16.17;8.70;;;;;;;-142.57;100.00;55638.41;4938909;28;20453;-81
2023/12/18 00:55:21;;;;;;;18.45;9.80;;;;;;;-142.57;100.00;55666.69;4935772;28;20050;-83
2023/12/18 00:57:47;;;;;;;18.50;8.85;;;;;;;-142.57;100.00;55630.31;4939669;28;20042;-81
2023/12/18 01:00:12;;;;;;;16.48;8.45;;;;;;;-142.57;100.00;55614.16;4932531;28;20081;-84
2023/12/18 01:02:38;;;;;;;16.88;8.05;;;;;;;-142.57;100.00;55595.97;4913711;28;20047;-79
2023/12/18 01:05:04;;;;;;;18.17;6.53;;;;;;;-142.57;100.00;55593.94;4929682;28;20039;-79
2023/12/18 01:07:30;;;;;;;12.82;5.97;;;;;;;-142.57;100.00;55579.81;4928714;28;20514;-80
2023/12/18 01:09:58;;;;;;;9.98;5.70;;;;;;;-142.57;100.00;55583.84;4931292;28;20026;-79
2023/12/18 01:12:27;;;;;;;11.52;4.97;;;;;;;-142.57;100.00;55557.56;4927294;28;20038;-81
2023/12/18 01:14:52;;;;;;;10.52;5.05;;;;;;;-142.57;100.00;55624.25;4930274;28;21597;-81
2023/12/18 01:17:18;;;;;;;7.15;4.68;;;;;;;-142.57;100.00;55648.50;4930581;28;20121;-83
2023/12/18 01:19:43;;;;;;;7.72;4.35;;;;;;;-142.57;100.00;55634.34;4924937;28;20047;-82
2023/12/18 01:22:09;;;;;;;7.80;3.97;;;;;;;-142.57;100.00;55608.09;4927568;28;20042;-79
2023/12/18 01:24:34;;;;;;;7.38;4.07;;;;;;;-142.57;100.00;55628.28;4930230;28;20058;-81
2023/12/18 01:27:00;;;;;;;7.97;4.03;;;;;;;-142.57;100.00;55644.47;4927880;28;20047;-79
2023/12/18 01:29:25;;;;;;;7.82;4.10;;;;;;;-142.57;100.00;55640.41;4928591;28;20035;-81
2023/12/18 01:31:51;;;;;;;8.27;3.60;;;;;;;-142.57;100.00;55577.78;4921293;28;20452;-81
2023/12/18 01:34:16;;;;;;;7.80;4.05;;;;;;;-142.57;100.00;55579.81;4934090;28;20042;-80
2023/12/18 01:36:42;;;;;;;8.32;3.97;;;;;;;-142.57;100.00;55583.84;4918334;28;20425;-80
2023/12/18 01:39:07;;;;;;;6.97;3.38;;;;;;;-142.57;100.00;55591.91;4930530;28;20123;-81
2023/12/18 01:41:33;;;;;;;11.82;4.57;;;;;;;-142.57;100.00;55616.16;4928965;28;20035;-82
2023/12/18 01:43:59;;;;;;;10.50;4.85;;;;;;;-142.57;100.00;55620.22;4980318;28;20099;-79
2023/12/18 01:46:25;;;;;;;14.13;5.18;;;;;;;-142.57;100.00;55604.03;4989191;28;20056;-80
2023/12/18 01:48:51;;;;;;;10.27;5.65;;;;;;;-142.57;100.00;55628.28;4943826;28;20082;-81
2023/12/18 01:51:19;;;;;;;12.07;5.72;;;;;;;-142.57;100.00;55620.22;4951021;28;20047;-80
2023/12/18 01:53:52;;;;;;;9.32;5.35;;;;;;;-142.57;100.00;55616.16;4953043;28;20035;-82
2023/12/18 01:56:20;;;;;;;10.18;5.20;;;;;;;-142.57;100.00;55624.25;4963985;28;20018;-81
2023/12/18 01:58:46;;;;;;;9.98;5.07;;;;;;;-142.57;100.00;55600.00;4990464;28;20489;-79
2023/12/18 02:01:13;;;;;;;11.57;5.50;;;;;;;-142.57;100.00;55591.91;4992494;28;20062;-82
2023/12/18 02:03:39;;;;;;;10.57;5.22;;;;;;;-142.57;100.00;55591.91;4951707;28;20082;-79
2023/12/18 02:06:05;;;;;;;9.23;4.70;;;;;;;-142.57;100.00;55591.91;4958567;28;20089;-81
2023/12/18 02:08:34;;;;;;;9.43;5.60;;;;;;;-142.57;100.00;55616.16;4931489;28;20130;-78
2023/12/18 02:11:00;;;;;;;11.52;6.05;;;;;;;-142.57;100.00;55593.94;4931326;28;20027;-79
2023/12/18 02:13:26;;;;;;;10.63;5.70;;;;;;;-142.57;100.00;55628.28;4934058;28;20047;-79
2023/12/18 02:15:51;;;;;;;17.00;6.00;;;;;;;-142.57;100.00;55587.88;4913870;28;20054;-81
2023/12/18 02:18:17;;;;;;;14.32;5.72;;;;;;;-142.57;100.00;55616.16;4930908;28;21393;-80
2023/12/18 02:20:44;;;;;;;11.02;5.57;;;;;;;-142.57;100.00;55638.41;4932232;28;20040;-82
2023/12/18 02:23:10;;;;;;;12.43;5.75;;;;;;;-142.57;100.00;55618.19;4915468;28;20034;-81
2023/12/18 02:25:36;;;;;;;12.07;5.78;;;;;;;-142.57;100.00;55648.50;4931589;28;21383;-80
2023/12/18 02:28:04;;;;;;;10.55;5.90;;;;;;;-142.57;100.00;55632.34;4932030;28;20034;-80
2023/12/18 02:30:32;;;;;;;12.88;6.18;;;;;;;-142.57;100.00;55561.63;4930433;28;20085;-80
2023/12/18 02:32:57;;;;;;;13.73;6.40;;;;;;;-142.57;100.00;55567.69;4930271;28;20814;-78
2023/12/18 02:35:23;;;;;;;13.65;6.47;;;;;;;-142.57;100.00;55604.03;4914487;28;20030;-81
2023/12/18 02:37:48;;;;;;;16.58;5.70;;;;;;;-142.57;100.00;55579.81;4930715;28;20066;-79
2023/12/18 02:40:14;;;;;;;15.00;5.80;;;;;;;-142.57;100.00;55595.97;4915041;28;20425;-81
2023/12/18 02:42:40;;;;;;;10.75;5.30;;;;;;;-142.57;100.00;55597.97;4931840;28;20066;-79
2023/12/18 02:45:06;;;;;;;13.90;5.88;;;;;;;-142.57;100.00;55567.69;4935082;28;20193;-80
2023/12/18 02:47:31;;;;;;;13.65;5.50;;;;;;;-142.57;100.00;55583.84;4913865;28;20034;-77
2023/12/18 02:49:57;;;;;;;10.93;5.55;;;;;;;-142.57;100.00;55575.75;4932069;28;20383;-81
2023/12/18 02:52:23;;;;;;;12.50;5.95;;;;;;;-142.57;100.00;55565.66;4934001;28;20066;-80
2023/12/18 02:54:50;;;;;;;13.10;6.18;;;;;;;-142.57;100.00;55547.47;4930714;28;20047;-82
2023/12/18 02:57:16;;;;;;;10.20;5.57;;;;;;;-142.57;100.00;55587.88;4913238;28;20046;-79
2023/12/18 02:59:41;;;;;;;13.45;5.70;;;;;;;-142.57;100.00;55608.09;4933390;28;20185;-80
2023/12/18 03:02:07;;;;;;;9.68;5.35;;;;;;;-142.57;100.00;55593.94;4934036;28;20034;-81
2023/12/18 03:04:32;;;;;;;10.15;5.45;;;;;;;-142.57;100.00;55551.50;4916500;28;20049;-80
2023/12/18 03:06:58;;;;;;;7.22;4.45;;;;;;;-142.57;100.00;55555.56;4930635;28;20039;-79
2023/12/18 03:09:23;;;;;;;9.93;4.68;;;;;;;-142.57;100.00;55591.91;4955710;28;20015;-81
2023/12/18 03:11:49;;;;;;;7.93;4.88;;;;;;;-142.57;100.00;55612.13;4969318;28;20042;-81
2023/12/18 03:14:15;;;;;;;8.55;4.57;;;;;;;-142.57;100.00;55561.63;4972226;28;20070;-80
2023/12/18 03:16:40;;;;;;;10.43;4.43;;;;;;;-142.57;100.00;55573.75;4967328;28;20070;-81
2023/12/18 03:19:06;;;;;;;7.93;4.30;;;;;;;-142.57;100.00;55561.63;4971469;28;20041;-80
2023/12/18 03:21:32;;;;;;;10.30;4.47;;;;;;;-142.57;100.00;55595.97;4968681;28;20038;-81
2023/12/18 03:23:58;;;;;;;10.95;5.07;;;;;;;-142.57;100.00;55555.56;4969373;28;20030;-79
2023/12/18 03:26:23;;;;;;;7.78;4.15;;;;;;;-142.57;100.00;55612.13;4971921;28;20398;-79
2023/12/18 03:28:49;;;;;;;7.53;4.32;;;;;;;-142.57;100.00;55593.94;4973247;28;20038;-79
2023/12/18 03:31:15;;;;;;;7.05;3.90;;;;;;;-142.57;100.00;55595.97;4965354;28;20039;-79
2023/12/18 03:33:41;;;;;;;10.68;4.80;;;;;;;-142.57;100.00;55597.97;4972947;28;20031;-79
2023/12/18 03:36:07;;;;;;;7.93;4.25;;;;;;;-142.57;100.00;55579.81;4972002;28;20050;-78
2023/12/18 03:38:33;;;;;;;12.02;5.00;;;;;;;-142.57;100.00;55604.03;4973034;28;20042;-81
2023/12/18 03:40:59;;;;;;;8.07;4.78;;;;;;;-142.57;100.00;55624.25;4938610;28;20474;-80
2023/12/18 03:43:25;;;;;;;9.43;4.95;;;;;;;-142.57;100.00;55632.34;4935937;28;20078;-81
2023/12/18 03:45:51;;;;;;;8.27;4.93;;;;;;;-142.57;100.00;55650.50;4933253;28;20037;-78
2023/12/18 03:48:16;;;;;;;7.93;4.28;;;;;;;-142.57;100.00;55591.91;4933156;28;20043;-87
2023/12/18 03:50:42;;;;;;;9.77;5.07;;;;;;;-142.57;100.00;55604.03;4969898;28;20042;-81
2023/12/18 03:53:08;;;;;;;7.13;4.28;;;;;;;-142.57;100.00;55614.16;4973086;28;20030;-80
2023/12/18 03:55:34;;;;;;;7.28;3.85;;;;;;;-142.57;100.00;55602.03;4956218;28;20047;-80
2023/12/18 03:58:00;;;;;;;7.53;4.25;;;;;;;-142.57;100.00;55597.97;4949824;28;20054;-82
2023/12/18 04:00:26;;;;;;;7.80;3.67;;;;;;;-142.57;100.00;55551.50;4948978;28;20055;-80
2023/12/18 04:02:52;;;;;;;5.88;3.50;;;;;;;-142.57;100.00;55551.50;4959203;28;20065;-80
2023/12/18 04:05:18;;;;;;;5.32;3.20;;;;;;;-142.57;100.00;55575.75;4942736;28;20039;-78
2023/12/18 04:07:46;;;;;;;9.13;3.10;;;;;;;-142.57;100.00;55539.38;4958053;28;20411;-80
2023/12/18 04:10:49;;;;;;;5.18;2.67;;;;;;;-142.57;100.00;55547.47;4982146;28;20107;-80
2023/12/18 04:13:15;;;;;;;5.03;2.40;;;;;;;-142.57;100.00;55527.28;4991619;28;20039;-80
2023/12/18 04:15:40;;;;;;;3.05;2.15;;;;;;;-142.57;100.00;55486.84;4968237;28;20034;-80
2023/12/18 04:18:07;;;;;;;5.80;2.17;;;;;;;-142.57;100.00;55507.06;4971584;28;20059;-78
2023/12/18 04:20:32;;;;;;;3.78;2.35;;;;;;;-142.57;100.00;55450.50;4990350;28;20127;-79
2023/12/18 04:22:58;;;;;;;4.57;2.45;;;;;;;-142.57;100.00;55527.28;4950313;28;20553;-79
2023/12/18 04:25:24;;;;;;;3.65;2.40;;;;;;;-142.57;100.00;55494.94;4963838;28;20035;-79
2023/12/18 04:27:50;;;;;;;3.78;2.33;;;;;;;-142.57;100.00;55543.44;4947358;28;20066;-79
2023/12/18 04:30:16;;;;;;;3.30;2.10;;;;;;;-142.57;100.00;55533.31;4949732;28;20057;-80
2023/12/18 04:32:41;;;;;;;5.18;2.45;;;;;;;-142.57;100.00;55543.44;4932677;28;20762;-82
2023/12/18 04:35:07;;;;;;;6.63;2.83;;;;;;;-142.57;100.00;55539.38;4978316;28;20031;-80
2023/12/18 04:37:34;;;;;;;4.05;2.67;;;;;;;-142.57;100.00;55555.56;4975355;28;20089;-80
2023/12/18 04:40:00;;;;;;;5.45;2.88;;;;;;;-142.57;100.00;55563.63;4975257;28;20710;-81
2023/12/18 04:42:26;;;;;;;5.15;2.80;;;;;;;-142.57;100.00;55527.28;4957470;28;20086;-82
2023/12/18 04:44:51;;;;;;;4.20;2.67;;;;;;;-142.57;100.00;55535.34;4934668;28;20067;-81
2023/12/18 04:47:17;;;;;;;5.10;2.20;;;;;;;-142.57;100.00;55589.91;4915252;28;20038;-81
2023/12/18 04:49:43;;;;;;;4.97;2.13;;;;;;;-142.57;100.00;55585.84;4931951;28;20041;-81
2023/12/18 04:52:08;;;;;;;4.28;2.40;;;;;;;-142.57;100.00;55575.75;4956528;28;20067;-80
2023/12/18 04:54:34;;;;;;;5.40;3.25;;;;;;;-142.57;100.00;55565.66;4982397;28;20023;-80
2023/12/18 04:57:38;;;;;;;6.28;3.30;;;;;;;-142.57;100.00;55503.03;4992890;28;20022;-80
2023/12/18 05:00:04;;;;;;;4.75;2.80;;;;;;;-142.57;100.00;55539.38;4958796;28;20130;-81
2023/12/18 05:02:30;;;;;;;5.35;3.30;;;;;;;-142.57;100.00;55503.03;4986733;28;20082;-82
2023/12/18 05:04:55;;;;;;;4.45;2.55;;;;;;;-142.57;100.00;55498.97;4973832;28;20047;-82
2023/12/18 05:07:21;;;;;;;6.13;3.45;;;;;;;-142.57;100.00;55539.38;4972282;28;20035;-82
2023/12/18 05:09:46;;;;;;;9.18;3.58;;;;;;;-142.57;100.00;55503.03;4973194;28;20441;-82
2023/12/18 05:12:12;;;;;;;5.90;3.40;;;;;;;-142.57;100.00;55492.91;4971599;28;20066;-87
2023/12/18 05:14:37;;;;;;;8.13;3.42;;;;;;;-142.57;100.00;55511.09;4932988;28;20390;-80
2023/12/18 05:17:03;;;;;;;6.65;3.15;;;;;;;-142.57;100.00;55505.03;4929080;28;20039;-82
2023/12/18 05:19:31;;;;;;;5.25;3.20;;;;;;;-142.57;100.00;55531.31;4933695;28;20043;-81
2023/12/18 05:21:56;;;;;;;8.88;4.00;;;;;;;-142.57;100.00;55525.25;4935518;28;21805;-81
2023/12/18 05:24:22;;;;;;;10.95;4.05;;;;;;;-142.57;100.00;55490.91;4973569;28;20026;-83
2023/12/18 05:26:47;;;;;;;7.28;3.95;;;;;;;-142.57;100.00;55531.31;4970755;28;20042;-82
2023/12/18 05:29:13;;;;;;;7.93;4.15;;;;;;;-142.57;100.00;55505.03;4950522;28;20048;-83
2023/12/18 05:31:44;;;;;;;8.98;4.10;;;;;;;-142.57;100.00;55505.03;4970552;28;20035;-85
2023/12/18 05:34:10;;;;;;;8.05;4.82;;;;;;;-142.57;100.00;55501.00;4957796;28;20066;-81
2023/12/18 05:36:38;;;;;;;9.07;4.53;;;;;;;-142.57;100.00;55496.97;4976301;28;20037;-81
2023/12/18 05:39:03;;;;;;;10.52;4.45;;;;;;;-142.57;100.00;55507.06;4972026;28;20378;-81
2023/12/18 05:41:29;;;;;;;9.85;5.10;;;;;;;-142.57;100.00;55470.69;4944892;28;20031;-83
2023/12/18 05:43:54;;;;;;;8.48;4.95;;;;;;;-142.57;100.00;55474.72;4975077;28;20062;-82
2023/12/18 05:46:20;;;;;;;8.65;4.65;;;;;;;-142.57;100.00;55517.16;4947500;28;20030;-84
2023/12/18 05:48:45;;;;;;;9.88;4.68;;;;;;;-142.57;100.00;55472.72;4927375;28;20046;-80
2023/12/18 05:51:21;;;;;;;9.35;4.82;;;;;;;-142.57;100.00;55462.63;4940461;28;20042;-79
2023/12/18 05:53:47;;;;;;;9.50;5.00;;;;;;;-142.57;100.00;55498.97;4932787;28;20053;-81
2023/12/18 05:56:16;;;;;;;11.13;5.10;;;;;;;-142.57;100.00;55496.97;4972995;28;20117;-84
2023/12/18 05:58:41;;;;;;;10.48;5.40;;;;;;;-142.57;100.00;55505.03;4965676;28;20059;-82
2023/12/18 06:01:07;;;;;;;9.98;5.63;;;;;;;-142.57;100.00;55462.63;4975096;28;20062;-79
2023/12/18 06:03:35;;;;;;;14.48;6.05;;;;;;;-142.57;100.00;55503.03;4957007;28;20085;-84
2023/12/18 06:06:01;;;;;;;13.65;5.78;;;;;;;-142.57;100.00;55509.09;4950652;28;20498;-81
2023/12/18 06:08:26;;;;;;;15.80;5.25;;;;;;;-142.57;100.00;55527.28;4923422;28;20630;-79
2023/12/18 06:10:55;;;;;;;12.00;6.15;;;;;;;-142.57;100.00;55547.47;4940175;28;20055;-83
2023/12/18 06:13:20;;;;;;;13.93;6.35;;;;;;;-142.57;100.00;55468.69;4934529;28;20121;-81
2023/12/18 06:15:46;;;;;;;10.10;5.85;;;;;;;-142.57;100.00;55476.75;4964196;28;22129;-82
2023/12/18 06:18:12;;;;;;;18.50;6.53;;;;;;;-142.57;100.00;55462.63;4934823;28;20552;-86
2023/12/18 06:20:38;;;;;;;11.60;6.65;;;;;;;-142.57;100.00;55498.97;4939407;28;20039;-86
2023/12/18 06:23:05;;;;;;;15.70;7.03;;;;;;;-142.57;100.00;55480.78;4962560;28;20027;-81
2023/12/18 06:25:33;;;;;;;11.82;6.95;;;;;;;-142.57;100.00;55503.03;4963240;28;20031;-84
2023/12/18 06:27:59;;;;;;;18.27;6.82;;;;;;;-142.57;100.00;55515.16;4986993;28;20126;-88
2023/12/18 06:30:24;;;;;;;16.50;6.90;;;;;;;-142.57;100.00;55521.22;4977615;28;20065;-84
2023/12/18 06:32:50;;;;;;;18.02;7.18;;;;;;;-142.57;100.00;55539.38;4958278;28;20069;-84
2023/12/18 06:35:15;;;;;;;22.45;7.57;;;;;;;-142.57;100.00;55523.22;4923252;28;20034;-84
2023/12/18 06:37:42;;;;;;;14.93;6.90;;;;;;;-142.57;100.00;55492.91;4951843;28;20041;-83
2023/12/18 06:40:08;;;;;;;15.63;6.82;;;;;;;-142.57;100.00;55519.19;4941550;28;21549;-82
2023/12/18 06:42:34;;;;;;;13.45;6.28;;;;;;;-142.57;100.00;55515.16;4943085;28;20030;-84
2023/12/18 06:44:59;;;;;;;23.15;7.32;;;;;;;-142.57;100.00;55494.94;4940677;28;20030;-85
2023/12/18 06:47:29;;;;;;;13.32;6.75;;;;;;;-142.57;100.00;55486.84;4946900;28;20058;-85
2023/12/18 06:49:54;;;;;;;19.35;8.18;;;;;;;-142.57;100.00;55525.25;4973295;28;20034;-81
2023/12/18 06:52:23;;;;;;;19.80;9.77;;;;;;;-142.57;100.00;55462.63;4972736;28;20042;-86
2023/12/18 06:54:48;;;;;;;18.05;9.45;;;;;;;-142.57;100.00;55464.63;4929470;28;20127;-88
2023/12/18 06:57:15;;;;;;;20.42;9.32;;;;;;;-142.57;100.00;55482.81;4962778;28;20059;-84
2023/12/18 06:59:40;;;;;;;32.72;8.82;;;;;;;-142.57;100.00;55498.97;4958019;28;20047;-83
2023/12/18 07:02:06;;;;;;;18.83;8.57;;;;;;;-142.57;100.00;55551.50;4962950;28;20085;-83
2023/12/18 07:04:34;;;;;;;29.02;8.77;;;;;;;-142.57;100.00;55579.81;4944602;28;20151;-87
2023/12/18 07:07:00;;;;;;;19.73;8.43;;;;;;;-142.57;100.00;55543.44;4973814;28;20377;-86
2023/12/18 07:09:25;;;;;;;117.90;15.65;;;;;;;-142.57;100.00;55600.00;4978365;28;20035;-83
2023/12/18 07:11:51;;;;;;;290.25;24.05;;;;;;;-142.57;100.00;55662.63;4953707;28;20035;-83
2023/12/18 07:14:18;;;;;;;225.93;23.15;;;;;;;-142.57;100.00;55715.16;4947161;28;20051;-87
2023/12/18 07:16:44;;;;;;;71.80;12.45;;;;;;;-142.57;100.00;55761.66;4949581;28;20516;-89
2023/12/18 07:19:09;;;;;;;958.03;81.22;;;;;;;-142.57;100.00;55761.66;4906834;28;20035;-86
2023/12/18 07:21:35;;;;;;;673.97;53.97;;;;;;;-142.57;100.00;55836.41;4964315;28;20047;-85
2023/12/18 07:24:00;;;;;;;409.30;36.53;;;;;;;-142.57;100.00;55941.47;4975665;28;20158;-87
2023/12/18 07:26:26;;;;;;;83.78;13.48;;;;;;;-142.57;100.00;55985.94;4952099;28;20027;-89
2023/12/18 07:28:51;;;;;;;191.73;17.55;;;;;;;-142.57;100.00;56060.69;4939716;28;20513;-84
2023/12/18 07:31:20;;;;;;;38.10;10.70;;;;;;;-142.57;100.00;56113.25;4940257;28;20039;-86
2023/12/18 07:33:45;;;;;;;47.72;10.05;;;;;;;-142.57;100.00;56141.53;4940721;28;20517;-86
2023/12/18 07:36:11;;;;;;;30.67;10.07;;;;;;;-142.57;100.00;56226.41;4954190;28;20035;-86
2023/12/18 07:38:36;;;;;;;91.70;14.32;;;;;;;-142.57;100.00;56287.03;4981526;28;20504;-86
2023/12/18 07:41:03;;;;;;;188.35;17.35;;;;;;;-142.57;100.00;56272.88;4970933;28;20498;-87
2023/12/18 07:43:29;;;;;;;43.63;10.93;;;;;;;-142.57;100.00;56291.06;4925164;28;20050;-87
2023/12/18 07:45:54;;;;;;;28.92;9.00;;;;;;;-142.57;100.00;56388.06;4937678;28;21258;-84
2023/12/18 07:48:24;;;;;;;331.83;29.35;;;;;;;-142.57;100.00;56333.50;4940865;28;20030;-83
2023/12/18 07:50:55;;;;;;;364.92;34.42;;;;;;;-142.57;100.00;56335.53;4924271;28;20053;-83
2023/12/18 07:53:21;;;;;;;476.25;42.60;;;;;;;-142.57;100.00;56341.59;4940212;28;20038;-85
2023/12/18 07:55:47;;;;;;;249.20;23.33;;;;;;;-142.57;100.00;56230.44;4940752;28;20035;-80
2023/12/18 07:58:13;;;;;;;114.55;15.40;;;;;;;-142.57;100.00;56190.03;4932759;28;20039;-79
2023/12/18 08:00:39;;;;;;;345.33;26.80;;;;;;;-142.57;100.00;56123.34;4938338;28;20023;-81
2023/12/18 08:03:05;;;;;;;160.45;17.42;;;;;;;-142.57;100.00;56111.22;4954823;28;20107;-80
2023/12/18 08:05:31;;;;;;;188.68;17.52;;;;;;;-142.57;100.00;56097.06;4948112;28;20110;-78
2023/12/18 08:07:56;;;;;;;124.15;12.77;;;;;;;-142.57;100.00;56034.44;4923254;28;20061;-79
2023/12/18 08:10:22;;;;;;;63.60;12.30;;;;;;;-142.57;100.00;56002.09;4919594;28;20585;-80
2023/12/18 08:12:50;;;;;;;42.72;10.48;;;;;;;-142.57;100.00;55983.91;4921496;28;20026;-83
2023/12/18 08:15:16;;;;;;;36.47;11.05;;;;;;;-142.57;100.00;55939.47;4940928;28;20030;-80
2023/12/18 08:17:41;;;;;;;45.67;12.20;;;;;;;-142.57;100.00;55903.09;4917505;28;20528;-78
2023/12/18 08:20:07;;;;;;;37.90;13.70;;;;;;;-142.57;100.00;55905.09;4938193;28;20061;-81
2023/12/18 08:22:34;;;;;;;38.28;13.98;;;;;;;-142.57;100.00;55907.13;4942434;28;20068;-80
2023/12/18 08:25:02;;;;;;;67.65;14.30;;;;;;;-142.57;100.00;55804.06;4920959;28;20030;-82
2023/12/18 08:27:32;;;;;;;32.67;12.68;;;;;;;-142.57;100.00;55826.31;4920703;28;20618;-81
2023/12/18 08:29:58;;;;;;;53.70;13.93;;;;;;;-142.57;100.00;55874.78;4917690;28;20035;-81
2023/12/18 08:32:24;;;;;;;44.90;13.20;;;;;;;-142.57;100.00;55905.09;4931925;28;20035;-81
2023/12/18 08:34:54;;;;;;;55.88;13.40;;;;;;;-142.57;100.00;55949.56;4920028;28;20058;-80
2023/12/18 08:37:20;;;;;;;30.65;10.90;;;;;;;-142.57;100.00;55992.00;4927273;28;20039;-80
2023/12/18 08:39:45;;;;;;;75.70;14.30;;;;;;;-142.57;100.00;56012.19;4931454;28;20053;-77
2023/12/18 08:42:11;;;;;;;56.75;11.98;;;;;;;-142.57;100.00;56064.75;4938995;28;20049;-81
2023/12/18 08:44:36;;;;;;;68.75;11.98;;;;;;;-142.57;100.00;56040.50;4915940;28;20091;-83
2023/12/18 08:47:22;;;;;;;50.22;12.20;;;;;;;-142.57;100.00;56052.63;4932788;28;20117;-79
2023/12/18 08:49:51;;;;;;;39.38;12.40;;;;;;;-142.57;100.00;56008.16;4932340;28;20084;-78
2023/12/18 08:52:17;;;;;;;47.95;10.65;;;;;;;-142.57;100.00;56084.94;4931393;28;20058;-80
2023/12/18 08:54:43;;;;;;;59.42;13.43;;;;;;;-142.57;100.00;56030.38;4932875;28;20062;-78
2023/12/18 08:57:09;;;;;;;37.10;11.88;;;;;;;-142.57;100.00;56089.00;4908630;28;22055;-76
2023/12/18 08:59:35;;;;;;;45.22;11.25;;;;;;;-142.57;100.00;56048.56;4908805;28;20039;-80
2023/12/18 09:02:00;;;;;;;62.42;10.45;;;;;;;-142.57;100.00;56076.88;4926129;28;22026;-80
2023/12/18 09:04:26;;;;;;;60.78;10.85;;;;;;;-142.57;100.00;56113.25;4932530;28;20561;-80
2023/12/18 09:06:51;;;;;;;45.13;9.85;;;;;;;-142.57;100.00;56091.00;4954861;28;20508;-82
2023/12/18 09:09:17;;;;;;;20.60;7.63;;;;;;;-142.57;100.00;56058.69;4971066;28;20097;-81
2023/12/18 09:11:43;;;;;;;54.97;9.55;;;;;;;-142.57;100.00;56048.56;4957331;28;20042;-84
2023/12/18 09:14:09;;;;;;;77.88;11.13;;;;;;;-142.57;100.00;56002.09;4914106;28;20634;-81
2023/12/18 09:16:35;;;;;;;44.53;8.70;;;;;;;-142.57;100.00;55975.84;4894343;28;20046;-83
2023/12/18 09:19:07;;;;;;;23.83;7.45;;;;;;;-142.57;100.00;55983.91;4923909;28;20031;-84
2023/12/18 09:21:33;;;;;;;35.95;7.93;;;;;;;-142.57;100.00;56030.38;4937865;28;20110;-81
2023/12/18 09:23:58;;;;;;;16.63;6.20;;;;;;;-142.57;100.00;56080.91;4970058;28;20110;-79
2023/12/18 09:26:25;;;;;;;9.35;5.50;;;;;;;-142.57;100.00;56074.84;4961272;28;21127;-80
2023/12/18 09:28:59;;;;;;;28.52;6.32;;;;;;;-142.57;100.00;56064.75;4927960;28;20494;-79
2023/12/18 09:31:45;;;;;;;23.17;6.53;;;;;;;-142.57;100.00;56016.25;4923427;28;20039;-79
2023/12/18 09:34:31;;;;;;;11.73;6.50;;;;;;;-142.57;100.00;56070.81;4947478;28;20105;-79
2023/12/18 09:37:39;;;;;;;24.60;7.10;;;;;;;-142.57;100.00;56147.59;4943051;28;20041;-83
2023/12/18 09:40:25;;;;;;;21.13;7.13;;;;;;;-142.57;100.00;56117.28;4901173;28;20045;-82
2023/12/18 09:42:53;;;;;;;28.17;8.10;;;;;;;-142.57;100.00;56145.56;4953975;28;20039;-80
2023/12/18 09:45:22;;;;;;;30.55;8.40;;;;;;;-142.57;100.00;56161.72;4969251;28;20054;-79
2023/12/18 09:47:49;;;;;;;28.27;7.60;;;;;;;-142.57;100.00;56141.53;4932958;28;20126;-79
2023/12/18 09:50:15;;;;;;;21.58;7.25;;;;;;;-142.57;100.00;56169.81;4922998;28;20070;-81
2023/12/18 09:52:52;;;;;;;25.95;7.55;;;;;;;-142.57;100.00;56159.72;4958977;28;20118;-80
2023/12/18 09:55:19;;;;;;;17.35;7.63;;;;;;;-142.57;100.00;56216.28;4951316;28;20679;-80
2023/12/18 09:57:45;;;;;;;21.52;6.68;;;;;;;-142.57;100.00;56234.47;4936029;28;22056;-81
2023/12/18 10:00:12;;;;;;;14.35;7.20;;;;;;;-142.57;100.00;56270.84;4924147;28;20039;-81
2023/12/18 10:02:41;;;;;;;29.90;7.28;;;;;;;-142.57;100.00;56274.91;4926222;28;20109;-79
2023/12/18 10:05:07;;;;;;;18.40;7.65;;;;;;;-142.57;100.00;56295.09;4922867;28;20031;-80
2023/12/18 10:07:33;;;;;;;31.13;8.18;;;;;;;-142.57;100.00;56262.78;4925799;28;20040;-80
2023/12/18 10:09:59;;;;;;;25.50;8.10;;;;;;;-142.57;100.00;56287.03;4942095;28;20041;-81
2023/12/18 10:12:25;;;;;;;92.80;11.95;;;;;;;-142.57;100.00;56339.56;4972805;28;20026;-81
2023/12/18 10:14:50;;;;;;;105.47;12.82;;;;;;;-142.57;100.00;56343.59;4970459;28;20034;-79
2023/12/18 10:17:16;;;;;;;48.92;10.55;;;;;;;-142.57;100.00;56317.34;4972852;28;20115;-80
2023/12/18 10:19:43;;;;;;;77.20;13.82;;;;;;;-142.57;100.00;56367.84;4956752;28;20452;-80
2023/12/18 10:22:08;;;;;;;31.67;13.23;;;;;;;-142.57;100.00;56357.75;4941725;28;22465;-79
2023/12/18 10:24:40;;;;;;;49.05;16.10;;;;;;;-142.57;100.00;56299.16;4951311;28;20039;-79
2023/12/18 10:27:05;;;;;;;30.97;17.07;;;;;;;-142.57;100.00;56303.19;4956333;28;20050;-79
2023/12/18 10:29:31;;;;;;;29.75;15.88;;;;;;;-142.57;100.00;56311.28;4944016;28;20401;-81
2023/12/18 10:31:57;;;;;;;42.28;16.67;;;;;;;-142.57;100.00;56355.72;4975955;28;20034;-80
2023/12/18 10:34:23;;;;;;;34.70;18.73;;;;;;;-142.57;100.00;56321.38;4972211;28;20113;-80
2023/12/18 10:36:53;;;;;;;44.33;20.08;;;;;;;-142.57;100.00;56353.72;4931880;28;21885;-82
2023/12/18 10:39:21;;;;;;;45.20;21.77;;;;;;;-142.57;100.00;56355.72;4949445;28;20038;-80
2023/12/18 10:41:53;;;;;;;48.75;22.20;;;;;;;-142.57;100.00;56373.91;4958927;28;20027;-78
2023/12/18 10:44:21;;;;;;;38.17;20.87;;;;;;;-142.57;100.00;56428.47;4936124;28;20040;-80
2023/12/18 10:46:49;;;;;;;36.80;20.45;;;;;;;-142.57;100.00;56440.59;4927240;28;21970;-79
2023/12/18 10:49:16;;;;;;;45.58;19.60;;;;;;;-142.57;100.00;56481.03;4933923;28;20126;-80
2023/12/18 10:51:47;;;;;;;37.67;20.23;;;;;;;-142.57;100.00;56456.78;4914459;28;20042;-80
2023/12/18 10:54:13;;;;;;;38.30;19.75;;;;;;;-142.57;100.00;56487.09;4922413;28;20039;-81
2023/12/18 10:56:40;;;;;;;36.75;19.58;;;;;;;-142.57;100.00;56493.16;4907503;28;20461;-80
2023/12/18 10:59:06;;;;;;;38.38;20.02;;;;;;;-142.57;100.00;56537.63;4927279;28;20038;-80
2023/12/18 11:01:34;;;;;;;40.30;20.20;;;;;;;-142.57;100.00;56529.53;4974495;28;20034;-79